sensor_id;sensor_type;location;lat;lon;timestamp;temperature;humidity
18930;DHT22;43305;52.186;5.598;2023-02-22T00:00:57;7.30;99.90
18930;DHT22;43305;52.186;5.598;2023-02-22T00:03:31;7.30;99.90
18930;DHT22;43305;52.186;5.598;2023-02-22T00:06:01;7.30;99.90
18930;DHT22;43305;52.186;5.598;2023-02-22T00:08:31;7.30;99.90
18930;DHT22;43305;52.186;5.598;2023-02-22T00:11:01;7.20;99.90
18930;DHT22;43305;52.186;5.598;2023-02-22T00:13:29;7.20;99.90
18930;DHT22;43305;52.186;5.598;2023-02-22T00:15:57;7.30;99.90
18930;DHT22;43305;52.186;5.598;2023-02-22T00:18:25;7.20;99.90
18930;DHT22;43305;52.186;5.598;2023-02-22T00:20:53;7.20;99.90
18930;DHT22;43305;52.186;5.598;2023-02-22T00:23:21;7.20;99.90
18930;DHT22;43305;52.186;5.598;2023-02-22T00:25:50;7.20;99.90
18930;DHT22;43305;52.186;5.598;2023-02-22T00:28:18;7.20;99.90
18930;DHT22;43305;52.186;5.598;2023-02-22T00:30:45;7.20;99.90
18930;DHT22;43305;52.186;5.598;2023-02-22T00:33:13;7.20;99.90
18930;DHT22;43305;52.186;5.598;2023-02-22T00:35:41;7.20;99.90
18930;DHT22;43305;52.186;5.598;2023-02-22T00:38:11;7.20;99.90
18930;DHT22;43305;52.186;5.598;2023-02-22T00:40:38;7.20;99.90
18930;DHT22;43305;52.186;5.598;2023-02-22T00:43:06;7.20;99.90
18930;DHT22;43305;52.186;5.598;2023-02-22T00:45:35;7.20;99.90
18930;DHT22;43305;52.186;5.598;2023-02-22T00:48:03;7.10;99.90
18930;DHT22;43305;52.186;5.598;2023-02-22T00:50:30;7.10;99.90
18930;DHT22;43305;52.186;5.598;2023-02-22T00:52:59;7.10;99.90
18930;DHT22;43305;52.186;5.598;2023-02-22T00:55:27;7.10;99.90
18930;DHT22;43305;52.186;5.598;2023-02-22T00:57:55;7.10;99.90
18930;DHT22;43305;52.186;5.598;2023-02-22T01:00:24;7.10;99.90
18930;DHT22;43305;52.186;5.598;2023-02-22T01:02:53;7.00;99.90
18930;DHT22;43305;52.186;5.598;2023-02-22T01:05:22;7.10;99.90
18930;DHT22;43305;52.186;5.598;2023-02-22T01:07:50;7.10;99.90
18930;DHT22;43305;52.186;5.598;2023-02-22T01:10:21;7.00;99.90
18930;DHT22;43305;52.186;5.598;2023-02-22T01:12:49;7.00;99.90
18930;DHT22;43305;52.186;5.598;2023-02-22T01:15:21;7.00;99.90
18930;DHT22;43305;52.186;5.598;2023-02-22T01:17:50;7.00;99.90
18930;DHT22;43305;52.186;5.598;2023-02-22T01:20:20;7.00;99.90
18930;DHT22;43305;52.186;5.598;2023-02-22T01:22:49;6.90;99.90
18930;DHT22;43305;52.186;5.598;2023-02-22T01:25:19;6.90;99.90
18930;DHT22;43305;52.186;5.598;2023-02-22T01:27:47;6.90;99.90
18930;DHT22;43305;52.186;5.598;2023-02-22T01:30:15;6.90;99.90
18930;DHT22;43305;52.186;5.598;2023-02-22T01:32:43;6.90;99.90
18930;DHT22;43305;52.186;5.598;2023-02-22T01:35:13;6.80;99.90
18930;DHT22;43305;52.186;5.598;2023-02-22T01:37:44;6.80;99.90
18930;DHT22;43305;52.186;5.598;2023-02-22T01:40:17;6.80;99.90
18930;DHT22;43305;52.186;5.598;2023-02-22T01:42:46;6.80;99.90
18930;DHT22;43305;52.186;5.598;2023-02-22T01:45:43;6.70;99.90
18930;DHT22;43305;52.186;5.598;2023-02-22T01:48:14;6.70;99.90
18930;DHT22;43305;52.186;5.598;2023-02-22T01:50:47;6.70;99.90
18930;DHT22;43305;52.186;5.598;2023-02-22T01:53:23;6.70;99.90
18930;DHT22;43305;52.186;5.598;2023-02-22T01:55:52;6.70;99.90
18930;DHT22;43305;52.186;5.598;2023-02-22T01:58:21;6.70;99.90
18930;DHT22;43305;52.186;5.598;2023-02-22T02:00:49;6.60;99.90
18930;DHT22;43305;52.186;5.598;2023-02-22T02:03:20;6.60;99.90
18930;DHT22;43305;52.186;5.598;2023-02-22T02:05:49;6.60;99.90
18930;DHT22;43305;52.186;5.598;2023-02-22T02:08:28;6.60;99.90
18930;DHT22;43305;52.186;5.598;2023-02-22T02:10:57;6.60;99.90
18930;DHT22;43305;52.186;5.598;2023-02-22T02:13:26;6.60;99.90
18930;DHT22;43305;52.186;5.598;2023-02-22T02:15:54;6.60;99.90
18930;DHT22;43305;52.186;5.598;2023-02-22T02:18:23;6.60;99.90
18930;DHT22;43305;52.186;5.598;2023-02-22T02:27:11;6.50;99.90
18930;DHT22;43305;52.186;5.598;2023-02-22T02:30:03;6.50;99.90
18930;DHT22;43305;52.186;5.598;2023-02-22T02:32:43;6.50;99.90
18930;DHT22;43305;52.186;5.598;2023-02-22T02:35:14;6.50;99.90
18930;DHT22;43305;52.186;5.598;2023-02-22T02:37:51;6.50;99.90
18930;DHT22;43305;52.186;5.598;2023-02-22T02:40:22;6.40;99.90
18930;DHT22;43305;52.186;5.598;2023-02-22T02:42:54;6.40;99.90
18930;DHT22;43305;52.186;5.598;2023-02-22T02:45:28;6.40;99.90
18930;DHT22;43305;52.186;5.598;2023-02-22T02:47:58;6.30;99.90
18930;DHT22;43305;52.186;5.598;2023-02-22T02:50:30;6.30;99.90
18930;DHT22;43305;52.186;5.598;2023-02-22T02:53:00;6.30;99.90
18930;DHT22;43305;52.186;5.598;2023-02-22T02:55:29;6.30;99.90
18930;DHT22;43305;52.186;5.598;2023-02-22T02:57:57;6.30;99.90
18930;DHT22;43305;52.186;5.598;2023-02-22T03:00:29;6.20;99.90
18930;DHT22;43305;52.186;5.598;2023-02-22T03:03:10;6.30;99.90
18930;DHT22;43305;52.186;5.598;2023-02-22T03:08:39;6.20;99.90
18930;DHT22;43305;52.186;5.598;2023-02-22T03:11:11;6.20;99.90
18930;DHT22;43305;52.186;5.598;2023-02-22T03:13:49;6.20;99.90
18930;DHT22;43305;52.186;5.598;2023-02-22T03:16:22;6.20;99.90
18930;DHT22;43305;52.186;5.598;2023-02-22T03:18:57;6.10;99.90
18930;DHT22;43305;52.186;5.598;2023-02-22T03:21:33;6.10;99.90
18930;DHT22;43305;52.186;5.598;2023-02-22T03:24:07;6.10;99.90
18930;DHT22;43305;52.186;5.598;2023-02-22T03:26:40;6.10;99.90
18930;DHT22;43305;52.186;5.598;2023-02-22T03:29:11;6.00;99.90
18930;DHT22;43305;52.186;5.598;2023-02-22T03:31:45;6.00;99.90
18930;DHT22;43305;52.186;5.598;2023-02-22T03:34:17;6.00;99.90
18930;DHT22;43305;52.186;5.598;2023-02-22T03:36:49;6.00;99.90
18930;DHT22;43305;52.186;5.598;2023-02-22T03:39:21;5.90;99.90
18930;DHT22;43305;52.186;5.598;2023-02-22T03:41:57;5.90;99.90
18930;DHT22;43305;52.186;5.598;2023-02-22T03:44:26;5.90;99.90
18930;DHT22;43305;52.186;5.598;2023-02-22T03:46:55;5.90;99.90
18930;DHT22;43305;52.186;5.598;2023-02-22T03:49:31;5.90;99.90
18930;DHT22;43305;52.186;5.598;2023-02-22T03:52:00;5.90;99.90
18930;DHT22;43305;52.186;5.598;2023-02-22T03:54:27;5.80;99.90
18930;DHT22;43305;52.186;5.598;2023-02-22T03:56:56;5.80;99.90
18930;DHT22;43305;52.186;5.598;2023-02-22T03:59:24;5.80;99.90
18930;DHT22;43305;52.186;5.598;2023-02-22T04:01:52;5.80;99.90
18930;DHT22;43305;52.186;5.598;2023-02-22T04:04:20;5.70;99.90
18930;DHT22;43305;52.186;5.598;2023-02-22T04:06:49;5.70;99.90
18930;DHT22;43305;52.186;5.598;2023-02-22T04:09:17;5.70;99.90
18930;DHT22;43305;52.186;5.598;2023-02-22T04:11:44;5.70;99.90
18930;DHT22;43305;52.186;5.598;2023-02-22T04:14:11;5.70;99.90
18930;DHT22;43305;52.186;5.598;2023-02-22T04:16:38;5.70;99.90
18930;DHT22;43305;52.186;5.598;2023-02-22T04:19:05;5.70;99.90
18930;DHT22;43305;52.186;5.598;2023-02-22T04:21:32;5.60;99.90
18930;DHT22;43305;52.186;5.598;2023-02-22T04:24:00;5.60;99.90
18930;DHT22;43305;52.186;5.598;2023-02-22T04:26:27;5.60;99.90
18930;DHT22;43305;52.186;5.598;2023-02-22T04:28:54;5.60;99.90
18930;DHT22;43305;52.186;5.598;2023-02-22T04:31:21;5.60;99.90
18930;DHT22;43305;52.186;5.598;2023-02-22T04:33:48;5.60;99.90
18930;DHT22;43305;52.186;5.598;2023-02-22T04:36:15;5.60;99.90
18930;DHT22;43305;52.186;5.598;2023-02-22T04:38:42;5.50;99.90
18930;DHT22;43305;52.186;5.598;2023-02-22T04:41:10;5.50;99.90
18930;DHT22;43305;52.186;5.598;2023-02-22T04:43:37;5.50;99.90
18930;DHT22;43305;52.186;5.598;2023-02-22T04:46:04;5.50;99.90
18930;DHT22;43305;52.186;5.598;2023-02-22T04:48:31;5.50;99.90
18930;DHT22;43305;52.186;5.598;2023-02-22T04:50:58;5.50;99.90
18930;DHT22;43305;52.186;5.598;2023-02-22T04:53:25;5.50;99.90
18930;DHT22;43305;52.186;5.598;2023-02-22T04:55:52;5.50;99.90
18930;DHT22;43305;52.186;5.598;2023-02-22T04:58:20;5.40;99.90
18930;DHT22;43305;52.186;5.598;2023-02-22T05:00:47;5.40;99.90
18930;DHT22;43305;52.186;5.598;2023-02-22T05:03:17;5.40;99.90
18930;DHT22;43305;52.186;5.598;2023-02-22T05:05:44;5.40;99.90
18930;DHT22;43305;52.186;5.598;2023-02-22T05:08:11;5.40;99.90
18930;DHT22;43305;52.186;5.598;2023-02-22T05:10:38;5.30;99.90
18930;DHT22;43305;52.186;5.598;2023-02-22T05:13:04;5.30;99.90
18930;DHT22;43305;52.186;5.598;2023-02-22T05:15:33;5.30;99.90
18930;DHT22;43305;52.186;5.598;2023-02-22T05:18:00;5.30;99.90
18930;DHT22;43305;52.186;5.598;2023-02-22T05:20:29;5.40;99.90
18930;DHT22;43305;52.186;5.598;2023-02-22T05:22:57;5.30;99.90
18930;DHT22;43305;52.186;5.598;2023-02-22T05:25:25;5.30;99.90
18930;DHT22;43305;52.186;5.598;2023-02-22T05:27:54;5.30;99.90
18930;DHT22;43305;52.186;5.598;2023-02-22T05:30:24;5.30;99.90
18930;DHT22;43305;52.186;5.598;2023-02-22T05:32:52;5.30;99.90
18930;DHT22;43305;52.186;5.598;2023-02-22T05:35:20;5.30;99.90
18930;DHT22;43305;52.186;5.598;2023-02-22T05:37:47;5.20;99.90
18930;DHT22;43305;52.186;5.598;2023-02-22T05:40:16;5.30;99.90
18930;DHT22;43305;52.186;5.598;2023-02-22T05:42:43;5.20;99.90
18930;DHT22;43305;52.186;5.598;2023-02-22T05:45:11;5.30;99.90
18930;DHT22;43305;52.186;5.598;2023-02-22T05:47:39;5.20;99.90
18930;DHT22;43305;52.186;5.598;2023-02-22T05:50:08;5.20;99.90
18930;DHT22;43305;52.186;5.598;2023-02-22T05:52:37;5.20;99.90
18930;DHT22;43305;52.186;5.598;2023-02-22T05:55:04;5.20;99.90
18930;DHT22;43305;52.186;5.598;2023-02-22T05:57:31;5.20;99.90
18930;DHT22;43305;52.186;5.598;2023-02-22T05:59:58;5.20;99.90
18930;DHT22;43305;52.186;5.598;2023-02-22T06:02:25;5.20;99.90
18930;DHT22;43305;52.186;5.598;2023-02-22T06:04:52;5.10;99.90
18930;DHT22;43305;52.186;5.598;2023-02-22T06:07:20;5.20;99.90
18930;DHT22;43305;52.186;5.598;2023-02-22T06:09:47;5.20;99.90
18930;DHT22;43305;52.186;5.598;2023-02-22T06:12:14;5.20;99.90
18930;DHT22;43305;52.186;5.598;2023-02-22T06:14:41;5.20;99.90
18930;DHT22;43305;52.186;5.598;2023-02-22T06:17:14;5.20;99.90
18930;DHT22;43305;52.186;5.598;2023-02-22T06:19:40;5.20;99.90
18930;DHT22;43305;52.186;5.598;2023-02-22T06:22:13;5.20;99.90
18930;DHT22;43305;52.186;5.598;2023-02-22T06:24:42;5.20;99.90
18930;DHT22;43305;52.186;5.598;2023-02-22T06:27:11;5.20;99.90
18930;DHT22;43305;52.186;5.598;2023-02-22T06:29:38;5.20;99.90
18930;DHT22;43305;52.186;5.598;2023-02-22T06:32:07;5.20;99.90
18930;DHT22;43305;52.186;5.598;2023-02-22T06:34:34;5.20;99.90
18930;DHT22;43305;52.186;5.598;2023-02-22T06:37:00;5.20;99.90
18930;DHT22;43305;52.186;5.598;2023-02-22T06:39:27;5.20;99.90
18930;DHT22;43305;52.186;5.598;2023-02-22T06:41:55;5.20;99.90
18930;DHT22;43305;52.186;5.598;2023-02-22T06:44:23;5.20;99.90
18930;DHT22;43305;52.186;5.598;2023-02-22T06:46:50;5.20;99.90
18930;DHT22;43305;52.186;5.598;2023-02-22T06:49:17;5.20;99.90
18930;DHT22;43305;52.186;5.598;2023-02-22T06:51:44;5.20;99.90
18930;DHT22;43305;52.186;5.598;2023-02-22T06:54:12;5.20;99.90
18930;DHT22;43305;52.186;5.598;2023-02-22T06:56:38;5.20;99.90
18930;DHT22;43305;52.186;5.598;2023-02-22T06:59:07;5.20;99.90
18930;DHT22;43305;52.186;5.598;2023-02-22T07:01:34;5.20;99.90
18930;DHT22;43305;52.186;5.598;2023-02-22T07:04:01;5.20;99.90
18930;DHT22;43305;52.186;5.598;2023-02-22T07:06:28;5.20;99.90
18930;DHT22;43305;52.186;5.598;2023-02-22T07:08:54;5.20;99.90
18930;DHT22;43305;52.186;5.598;2023-02-22T07:11:21;5.20;99.90
18930;DHT22;43305;52.186;5.598;2023-02-22T07:13:49;5.20;99.90
18930;DHT22;43305;52.186;5.598;2023-02-22T07:16:17;5.20;99.90
18930;DHT22;43305;52.186;5.598;2023-02-22T07:18:44;5.20;99.90
18930;DHT22;43305;52.186;5.598;2023-02-22T07:21:11;5.10;99.90
18930;DHT22;43305;52.186;5.598;2023-02-22T07:23:38;5.20;99.90
18930;DHT22;43305;52.186;5.598;2023-02-22T07:26:05;5.20;99.90
18930;DHT22;43305;52.186;5.598;2023-02-22T07:28:32;5.10;99.90
18930;DHT22;43305;52.186;5.598;2023-02-22T07:30:59;5.20;99.90
18930;DHT22;43305;52.186;5.598;2023-02-22T07:33:27;5.20;99.90
18930;DHT22;43305;52.186;5.598;2023-02-22T07:35:54;5.20;99.90
18930;DHT22;43305;52.186;5.598;2023-02-22T07:38:21;5.20;99.90
18930;DHT22;43305;52.186;5.598;2023-02-22T07:40:48;5.30;99.90
18930;DHT22;43305;52.186;5.598;2023-02-22T07:43:17;5.30;99.90
18930;DHT22;43305;52.186;5.598;2023-02-22T07:45:45;5.30;99.90
18930;DHT22;43305;52.186;5.598;2023-02-22T07:48:13;5.30;99.90
18930;DHT22;43305;52.186;5.598;2023-02-22T07:50:42;5.30;99.90
18930;DHT22;43305;52.186;5.598;2023-02-22T07:53:12;5.30;99.90
18930;DHT22;43305;52.186;5.598;2023-02-22T07:55:39;5.30;99.90
18930;DHT22;43305;52.186;5.598;2023-02-22T07:58:07;5.30;99.90
18930;DHT22;43305;52.186;5.598;2023-02-22T08:00:35;5.40;99.90
18930;DHT22;43305;52.186;5.598;2023-02-22T08:03:07;5.40;99.90
18930;DHT22;43305;52.186;5.598;2023-02-22T08:05:36;5.40;99.90
18930;DHT22;43305;52.186;5.598;2023-02-22T08:08:05;5.40;99.90
18930;DHT22;43305;52.186;5.598;2023-02-22T08:10:33;5.50;99.90
18930;DHT22;43305;52.186;5.598;2023-02-22T08:13:01;5.50;99.90
18930;DHT22;43305;52.186;5.598;2023-02-22T08:15:30;5.50;99.90
18930;DHT22;43305;52.186;5.598;2023-02-22T08:17:58;5.50;99.90
18930;DHT22;43305;52.186;5.598;2023-02-22T08:20:27;5.50;99.90
18930;DHT22;43305;52.186;5.598;2023-02-22T08:22:55;5.50;99.90
18930;DHT22;43305;52.186;5.598;2023-02-22T08:25:25;5.50;99.90
18930;DHT22;43305;52.186;5.598;2023-02-22T08:27:56;5.60;99.90
18930;DHT22;43305;52.186;5.598;2023-02-22T08:30:26;5.60;99.90
18930;DHT22;43305;52.186;5.598;2023-02-22T08:32:54;5.60;99.90
18930;DHT22;43305;52.186;5.598;2023-02-22T08:35:21;5.60;99.90
18930;DHT22;43305;52.186;5.598;2023-02-22T08:37:50;5.60;99.90
18930;DHT22;43305;52.186;5.598;2023-02-22T08:40:18;5.60;99.90
18930;DHT22;43305;52.186;5.598;2023-02-22T08:42:50;5.70;99.90
18930;DHT22;43305;52.186;5.598;2023-02-22T08:45:18;5.70;99.90
18930;DHT22;43305;52.186;5.598;2023-02-22T08:47:45;5.70;99.90
18930;DHT22;43305;52.186;5.598;2023-02-22T08:50:16;5.70;99.90
18930;DHT22;43305;52.186;5.598;2023-02-22T08:52:44;5.80;99.90
18930;DHT22;43305;52.186;5.598;2023-02-22T08:55:11;5.80;99.90
18930;DHT22;43305;52.186;5.598;2023-02-22T08:57:38;5.90;99.90
18930;DHT22;43305;52.186;5.598;2023-02-22T09:00:10;5.90;99.90
18930;DHT22;43305;52.186;5.598;2023-02-22T09:02:37;5.90;99.90
18930;DHT22;43305;52.186;5.598;2023-02-22T09:05:07;5.90;99.90
18930;DHT22;43305;52.186;5.598;2023-02-22T09:07:33;6.00;99.90
18930;DHT22;43305;52.186;5.598;2023-02-22T09:10:00;6.10;99.90
18930;DHT22;43305;52.186;5.598;2023-02-22T09:12:27;6.10;99.90
18930;DHT22;43305;52.186;5.598;2023-02-22T09:14:54;6.10;99.90
18930;DHT22;43305;52.186;5.598;2023-02-22T09:17:22;6.20;99.90
18930;DHT22;43305;52.186;5.598;2023-02-22T09:19:49;6.30;99.90
18930;DHT22;43305;52.186;5.598;2023-02-22T09:22:15;6.40;99.90
18930;DHT22;43305;52.186;5.598;2023-02-22T09:24:42;6.50;99.90
18930;DHT22;43305;52.186;5.598;2023-02-22T09:27:12;6.50;99.90
18930;DHT22;43305;52.186;5.598;2023-02-22T09:29:42;6.50;99.90
18930;DHT22;43305;52.186;5.598;2023-02-22T09:32:09;6.60;99.90
18930;DHT22;43305;52.186;5.598;2023-02-22T09:34:40;6.60;99.90
18930;DHT22;43305;52.186;5.598;2023-02-22T09:37:13;6.70;99.90
18930;DHT22;43305;52.186;5.598;2023-02-22T09:39:42;6.70;99.90
18930;DHT22;43305;52.186;5.598;2023-02-22T09:42:14;6.80;99.90
18930;DHT22;43305;52.186;5.598;2023-02-22T09:44:46;6.90;99.90
18930;DHT22;43305;52.186;5.598;2023-02-22T09:47:23;7.00;99.90
18930;DHT22;43305;52.186;5.598;2023-02-22T09:50:02;7.00;99.90
18930;DHT22;43305;52.186;5.598;2023-02-22T09:52:31;7.20;99.90
18930;DHT22;43305;52.186;5.598;2023-02-22T09:55:06;7.20;99.90
18930;DHT22;43305;52.186;5.598;2023-02-22T09:57:37;7.30;99.90
18930;DHT22;43305;52.186;5.598;2023-02-22T10:00:11;7.30;99.90
18930;DHT22;43305;52.186;5.598;2023-02-22T10:02:45;7.40;99.90
18930;DHT22;43305;52.186;5.598;2023-02-22T10:05:18;7.40;99.90
18930;DHT22;43305;52.186;5.598;2023-02-22T10:07:51;7.50;99.90
18930;DHT22;43305;52.186;5.598;2023-02-22T10:10:22;7.50;99.90
18930;DHT22;43305;52.186;5.598;2023-02-22T10:12:58;7.50;99.90
18930;DHT22;43305;52.186;5.598;2023-02-22T10:15:45;7.70;99.90
18930;DHT22;43305;52.186;5.598;2023-02-22T10:21:38;7.90;99.90
18930;DHT22;43305;52.186;5.598;2023-02-22T10:24:14;8.00;99.90
18930;DHT22;43305;52.186;5.598;2023-02-22T10:26:45;8.00;99.90
18930;DHT22;43305;52.186;5.598;2023-02-22T10:29:16;8.10;99.90
18930;DHT22;43305;52.186;5.598;2023-02-22T10:31:52;8.20;99.90
18930;DHT22;43305;52.186;5.598;2023-02-22T10:34:22;8.20;99.90
18930;DHT22;43305;52.186;5.598;2023-02-22T10:36:59;8.30;99.90
18930;DHT22;43305;52.186;5.598;2023-02-22T10:39:31;8.30;99.90
18930;DHT22;43305;52.186;5.598;2023-02-22T10:42:02;8.40;99.90
18930;DHT22;43305;52.186;5.598;2023-02-22T10:44:31;8.50;99.90
18930;DHT22;43305;52.186;5.598;2023-02-22T10:46:59;8.70;99.90
18930;DHT22;43305;52.186;5.598;2023-02-22T10:49:33;9.00;99.90
18930;DHT22;43305;52.186;5.598;2023-02-22T10:52:03;9.10;99.90
18930;DHT22;43305;52.186;5.598;2023-02-22T10:54:40;9.20;99.90
18930;DHT22;43305;52.186;5.598;2023-02-22T10:57:08;9.40;99.90
18930;DHT22;43305;52.186;5.598;2023-02-22T10:59:39;9.40;99.90
18930;DHT22;43305;52.186;5.598;2023-02-22T11:02:15;9.40;99.90
18930;DHT22;43305;52.186;5.598;2023-02-22T11:04:46;9.40;99.90
18930;DHT22;43305;52.186;5.598;2023-02-22T11:07:22;9.40;99.90
18930;DHT22;43305;52.186;5.598;2023-02-22T11:09:51;9.40;99.90
18930;DHT22;43305;52.186;5.598;2023-02-22T11:12:20;9.40;99.90
18930;DHT22;43305;52.186;5.598;2023-02-22T11:14:51;9.50;99.90
18930;DHT22;43305;52.186;5.598;2023-02-22T11:17:26;9.60;99.90
18930;DHT22;43305;52.186;5.598;2023-02-22T11:19:54;9.70;99.90
18930;DHT22;43305;52.186;5.598;2023-02-22T11:22:25;10.00;99.90
18930;DHT22;43305;52.186;5.598;2023-02-22T11:24:56;10.10;99.90
18930;DHT22;43305;52.186;5.598;2023-02-22T11:27:32;10.10;99.90
18930;DHT22;43305;52.186;5.598;2023-02-22T11:30:21;10.20;99.90
18930;DHT22;43305;52.186;5.598;2023-02-22T11:32:54;10.20;99.90
18930;DHT22;43305;52.186;5.598;2023-02-22T11:35:38;10.30;99.90
18930;DHT22;43305;52.186;5.598;2023-02-22T11:38:19;10.30;99.90
18930;DHT22;43305;52.186;5.598;2023-02-22T11:41:09;10.30;99.90
18930;DHT22;43305;52.186;5.598;2023-02-22T11:43:43;10.20;99.90
18930;DHT22;43305;52.186;5.598;2023-02-22T11:46:13;10.20;99.90
18930;DHT22;43305;52.186;5.598;2023-02-22T11:48:46;10.30;99.90
18930;DHT22;43305;52.186;5.598;2023-02-22T11:51:33;10.40;99.90
18930;DHT22;43305;52.186;5.598;2023-02-22T11:54:15;10.50;99.90
18930;DHT22;43305;52.186;5.598;2023-02-22T11:56:51;10.50;99.90
18930;DHT22;43305;52.186;5.598;2023-02-22T11:59:28;10.40;99.90
18930;DHT22;43305;52.186;5.598;2023-02-22T12:02:05;10.30;99.90
18930;DHT22;43305;52.186;5.598;2023-02-22T12:04:55;10.30;99.90
18930;DHT22;43305;52.186;5.598;2023-02-22T12:07:51;10.30;99.90
18930;DHT22;43305;52.186;5.598;2023-02-22T12:10:29;10.20;99.90
18930;DHT22;43305;52.186;5.598;2023-02-22T12:13:08;10.00;99.90
18930;DHT22;43305;52.186;5.598;2023-02-22T12:15:45;9.90;99.90
18930;DHT22;43305;52.186;5.598;2023-02-22T12:18:22;9.90;99.90
18930;DHT22;43305;52.186;5.598;2023-02-22T12:20:55;9.80;99.90
18930;DHT22;43305;52.186;5.598;2023-02-22T12:23:27;9.80;99.90
18930;DHT22;43305;52.186;5.598;2023-02-22T12:26:02;9.80;99.90
18930;DHT22;43305;52.186;5.598;2023-02-22T12:28:34;9.80;99.90
18930;DHT22;43305;52.186;5.598;2023-02-22T12:31:20;9.80;99.90
18930;DHT22;43305;52.186;5.598;2023-02-22T12:33:54;9.70;99.90
18930;DHT22;43305;52.186;5.598;2023-02-22T12:36:32;9.60;99.90
18930;DHT22;43305;52.186;5.598;2023-02-22T12:39:02;9.60;99.90
18930;DHT22;43305;52.186;5.598;2023-02-22T12:41:36;9.60;99.90
18930;DHT22;43305;52.186;5.598;2023-02-22T12:44:09;9.60;99.90
18930;DHT22;43305;52.186;5.598;2023-02-22T12:46:44;9.60;99.90
18930;DHT22;43305;52.186;5.598;2023-02-22T12:49:17;9.60;99.90
18930;DHT22;43305;52.186;5.598;2023-02-22T12:51:50;9.60;99.90
18930;DHT22;43305;52.186;5.598;2023-02-22T12:54:24;9.60;99.90
18930;DHT22;43305;52.186;5.598;2023-02-22T12:56:58;9.60;99.90
18930;DHT22;43305;52.186;5.598;2023-02-22T12:59:31;9.60;99.90
18930;DHT22;43305;52.186;5.598;2023-02-22T13:02:07;9.70;99.90
18930;DHT22;43305;52.186;5.598;2023-02-22T13:04:36;9.80;99.90
18930;DHT22;43305;52.186;5.598;2023-02-22T13:07:16;9.80;99.90
18930;DHT22;43305;52.186;5.598;2023-02-22T13:10:02;9.80;99.90
18930;DHT22;43305;52.186;5.598;2023-02-22T13:12:41;9.80;99.90
18930;DHT22;43305;52.186;5.598;2023-02-22T13:15:16;9.90;99.90
18930;DHT22;43305;52.186;5.598;2023-02-22T13:17:50;10.00;99.90
18930;DHT22;43305;52.186;5.598;2023-02-22T13:20:22;10.10;99.90
18930;DHT22;43305;52.186;5.598;2023-02-22T13:22:55;10.00;99.90
18930;DHT22;43305;52.186;5.598;2023-02-22T13:25:29;10.00;99.90
18930;DHT22;43305;52.186;5.598;2023-02-22T13:28:08;10.00;99.90
18930;DHT22;43305;52.186;5.598;2023-02-22T13:30:44;10.00;99.90
18930;DHT22;43305;52.186;5.598;2023-02-22T13:33:27;10.00;99.90
18930;DHT22;43305;52.186;5.598;2023-02-22T13:36:22;10.00;99.90
18930;DHT22;43305;52.186;5.598;2023-02-22T13:42:04;10.00;99.90
18930;DHT22;43305;52.186;5.598;2023-02-22T13:48:08;10.00;99.90
18930;DHT22;43305;52.186;5.598;2023-02-22T13:53:46;10.10;99.90
18930;DHT22;43305;52.186;5.598;2023-02-22T13:56:15;10.10;99.90
18930;DHT22;43305;52.186;5.598;2023-02-22T13:58:49;10.20;99.90
18930;DHT22;43305;52.186;5.598;2023-02-22T14:01:36;10.20;99.90
18930;DHT22;43305;52.186;5.598;2023-02-22T14:04:38;10.20;99.90
18930;DHT22;43305;52.186;5.598;2023-02-22T14:10:44;10.20;99.90
18930;DHT22;43305;52.186;5.598;2023-02-22T14:13:12;10.10;99.90
18930;DHT22;43305;52.186;5.598;2023-02-22T14:18:42;10.10;99.90
18930;DHT22;43305;52.186;5.598;2023-02-22T14:21:11;10.10;99.90
18930;DHT22;43305;52.186;5.598;2023-02-22T14:23:41;10.10;99.90
18930;DHT22;43305;52.186;5.598;2023-02-22T14:26:10;10.10;99.90
18930;DHT22;43305;52.186;5.598;2023-02-22T14:28:45;10.00;99.90
18930;DHT22;43305;52.186;5.598;2023-02-22T14:31:16;10.00;99.90
18930;DHT22;43305;52.186;5.598;2023-02-22T14:34:00;10.10;99.90
18930;DHT22;43305;52.186;5.598;2023-02-22T14:36:32;10.00;99.90
18930;DHT22;43305;52.186;5.598;2023-02-22T14:39:18;10.00;99.90
18930;DHT22;43305;52.186;5.598;2023-02-22T14:41:50;10.00;99.90
18930;DHT22;43305;52.186;5.598;2023-02-22T14:44:25;10.00;99.90
18930;DHT22;43305;52.186;5.598;2023-02-22T14:46:55;10.00;99.90
18930;DHT22;43305;52.186;5.598;2023-02-22T14:49:30;10.00;99.90
18930;DHT22;43305;52.186;5.598;2023-02-22T14:52:01;10.00;99.90
18930;DHT22;43305;52.186;5.598;2023-02-22T14:54:34;10.10;99.90
18930;DHT22;43305;52.186;5.598;2023-02-22T14:57:11;10.10;99.90
18930;DHT22;43305;52.186;5.598;2023-02-22T14:59:49;10.10;99.90
18930;DHT22;43305;52.186;5.598;2023-02-22T15:02:18;10.10;99.90
18930;DHT22;43305;52.186;5.598;2023-02-22T15:04:53;10.20;99.90
18930;DHT22;43305;52.186;5.598;2023-02-22T15:07:22;10.20;99.90
18930;DHT22;43305;52.186;5.598;2023-02-22T15:12:34;10.30;99.90
18930;DHT22;43305;52.186;5.598;2023-02-22T15:15:15;10.30;99.90
18930;DHT22;43305;52.186;5.598;2023-02-22T15:17:47;10.30;99.90
18930;DHT22;43305;52.186;5.598;2023-02-22T15:20:16;10.30;99.90
18930;DHT22;43305;52.186;5.598;2023-02-22T15:22:45;10.30;99.90
18930;DHT22;43305;52.186;5.598;2023-02-22T15:25:13;10.30;99.90
18930;DHT22;43305;52.186;5.598;2023-02-22T15:27:44;10.30;99.90
18930;DHT22;43305;52.186;5.598;2023-02-22T15:30:19;10.30;99.90
18930;DHT22;43305;52.186;5.598;2023-02-22T15:32:51;10.20;99.90
18930;DHT22;43305;52.186;5.598;2023-02-22T15:35:25;10.20;99.90
18930;DHT22;43305;52.186;5.598;2023-02-22T15:37:58;10.10;99.90
18930;DHT22;43305;52.186;5.598;2023-02-22T15:40:26;10.10;99.90
18930;DHT22;43305;52.186;5.598;2023-02-22T15:42:59;10.10;99.90
18930;DHT22;43305;52.186;5.598;2023-02-22T15:45:27;10.10;99.90
18930;DHT22;43305;52.186;5.598;2023-02-22T15:47:57;10.00;99.90
18930;DHT22;43305;52.186;5.598;2023-02-22T15:50:28;10.00;99.90
18930;DHT22;43305;52.186;5.598;2023-02-22T15:52:57;9.90;99.90
18930;DHT22;43305;52.186;5.598;2023-02-22T15:55:27;9.90;99.90
18930;DHT22;43305;52.186;5.598;2023-02-22T15:57:58;9.90;99.90
18930;DHT22;43305;52.186;5.598;2023-02-22T16:00:27;9.90;99.90
18930;DHT22;43305;52.186;5.598;2023-02-22T16:03:01;9.90;99.90
18930;DHT22;43305;52.186;5.598;2023-02-22T16:05:37;9.90;99.90
18930;DHT22;43305;52.186;5.598;2023-02-22T16:08:12;9.80;99.90
18930;DHT22;43305;52.186;5.598;2023-02-22T16:10:46;9.80;99.90
18930;DHT22;43305;52.186;5.598;2023-02-22T16:13:19;9.80;99.90
18930;DHT22;43305;52.186;5.598;2023-02-22T16:15:53;9.80;99.90
18930;DHT22;43305;52.186;5.598;2023-02-22T16:18:30;9.70;99.90
18930;DHT22;43305;52.186;5.598;2023-02-22T16:21:02;9.80;99.90
18930;DHT22;43305;52.186;5.598;2023-02-22T16:23:30;9.70;99.90
18930;DHT22;43305;52.186;5.598;2023-02-22T16:26:04;9.70;99.90
18930;DHT22;43305;52.186;5.598;2023-02-22T16:28:31;9.70;99.90
18930;DHT22;43305;52.186;5.598;2023-02-22T16:31:00;9.60;99.90
18930;DHT22;43305;52.186;5.598;2023-02-22T16:33:27;9.60;99.90
18930;DHT22;43305;52.186;5.598;2023-02-22T16:36:04;9.60;99.90
18930;DHT22;43305;52.186;5.598;2023-02-22T16:38:33;9.50;99.90